sensor_id;sensor_type;location;lat;lon;timestamp;temperature;humidity
33564;DHT22;19894;48.452;11.494;2023-02-15T00:01:09;18.30;32.90
33564;DHT22;19894;48.452;11.494;2023-02-15T00:03:35;18.30;32.90
33564;DHT22;19894;48.452;11.494;2023-02-15T00:06:02;18.30;32.90
33564;DHT22;19894;48.452;11.494;2023-02-15T00:08:27;18.30;32.90
33564;DHT22;19894;48.452;11.494;2023-02-15T00:10:56;18.30;32.90
33564;DHT22;19894;48.452;11.494;2023-02-15T00:13:28;18.30;32.90
33564;DHT22;19894;48.452;11.494;2023-02-15T00:15:54;18.30;32.90
33564;DHT22;19894;48.452;11.494;2023-02-15T00:18:19;18.30;32.90
33564;DHT22;19894;48.452;11.494;2023-02-15T00:20:44;18.40;32.90
33564;DHT22;19894;48.452;11.494;2023-02-15T00:23:10;18.30;32.90
33564;DHT22;19894;48.452;11.494;2023-02-15T00:25:36;18.30;32.90
33564;DHT22;19894;48.452;11.494;2023-02-15T00:28:01;18.30;32.90
33564;DHT22;19894;48.452;11.494;2023-02-15T00:30:27;18.30;32.90
33564;DHT22;19894;48.452;11.494;2023-02-15T00:32:52;18.30;32.90
33564;DHT22;19894;48.452;11.494;2023-02-15T00:35:18;18.30;32.90
33564;DHT22;19894;48.452;11.494;2023-02-15T00:37:43;18.30;32.90
33564;DHT22;19894;48.452;11.494;2023-02-15T00:40:09;18.30;32.80
33564;DHT22;19894;48.452;11.494;2023-02-15T00:42:34;18.30;32.90
33564;DHT22;19894;48.452;11.494;2023-02-15T00:45:00;18.30;32.90
33564;DHT22;19894;48.452;11.494;2023-02-15T00:47:25;18.30;32.90
33564;DHT22;19894;48.452;11.494;2023-02-15T00:49:51;18.30;32.90
33564;DHT22;19894;48.452;11.494;2023-02-15T00:52:17;18.30;32.90
33564;DHT22;19894;48.452;11.494;2023-02-15T00:54:43;18.30;32.80
33564;DHT22;19894;48.452;11.494;2023-02-15T00:57:08;18.30;32.80
33564;DHT22;19894;48.452;11.494;2023-02-15T00:59:34;18.30;32.90
33564;DHT22;19894;48.452;11.494;2023-02-15T01:02:00;18.30;32.90
33564;DHT22;19894;48.452;11.494;2023-02-15T01:04:25;18.30;32.90
33564;DHT22;19894;48.452;11.494;2023-02-15T01:06:51;18.30;32.80
33564;DHT22;19894;48.452;11.494;2023-02-15T01:09:16;18.30;32.80
33564;DHT22;19894;48.452;11.494;2023-02-15T01:11:42;18.30;32.80
33564;DHT22;19894;48.452;11.494;2023-02-15T01:14:07;18.30;32.80
33564;DHT22;19894;48.452;11.494;2023-02-15T01:16:33;18.30;32.80
33564;DHT22;19894;48.452;11.494;2023-02-15T01:18:58;18.30;32.80
33564;DHT22;19894;48.452;11.494;2023-02-15T01:21:25;18.30;32.80
33564;DHT22;19894;48.452;11.494;2023-02-15T01:23:51;18.30;32.80
33564;DHT22;19894;48.452;11.494;2023-02-15T01:26:17;18.30;32.80
33564;DHT22;19894;48.452;11.494;2023-02-15T01:28:43;18.30;32.80
33564;DHT22;19894;48.452;11.494;2023-02-15T01:31:12;18.30;32.80
33564;DHT22;19894;48.452;11.494;2023-02-15T01:33:39;18.30;32.80
33564;DHT22;19894;48.452;11.494;2023-02-15T01:36:05;18.30;32.80
33564;DHT22;19894;48.452;11.494;2023-02-15T01:38:31;18.30;32.80
33564;DHT22;19894;48.452;11.494;2023-02-15T01:40:56;18.30;32.80
33564;DHT22;19894;48.452;11.494;2023-02-15T01:43:43;18.30;32.80
33564;DHT22;19894;48.452;11.494;2023-02-15T01:46:11;18.30;32.80
33564;DHT22;19894;48.452;11.494;2023-02-15T01:48:43;18.30;32.80
33564;DHT22;19894;48.452;11.494;2023-02-15T01:51:10;18.30;32.80
33564;DHT22;19894;48.452;11.494;2023-02-15T01:56:21;18.30;32.80
33564;DHT22;19894;48.452;11.494;2023-02-15T01:58:49;18.30;32.80
33564;DHT22;19894;48.452;11.494;2023-02-15T02:01:16;18.30;32.80
33564;DHT22;19894;48.452;11.494;2023-02-15T02:03:51;18.30;32.80
33564;DHT22;19894;48.452;11.494;2023-02-15T02:06:19;18.30;32.80
33564;DHT22;19894;48.452;11.494;2023-02-15T02:08:45;18.30;32.80
33564;DHT22;19894;48.452;11.494;2023-02-15T02:11:13;18.30;32.80
33564;DHT22;19894;48.452;11.494;2023-02-15T02:13:43;18.30;32.80
33564;DHT22;19894;48.452;11.494;2023-02-15T02:16:16;18.30;32.80
33564;DHT22;19894;48.452;11.494;2023-02-15T02:19:02;18.30;32.80
33564;DHT22;19894;48.452;11.494;2023-02-15T02:21:46;18.30;32.80
33564;DHT22;19894;48.452;11.494;2023-02-15T02:27:21;18.30;32.70
33564;DHT22;19894;48.452;11.494;2023-02-15T02:39:21;18.30;32.70
33564;DHT22;19894;48.452;11.494;2023-02-15T02:41:57;18.30;32.70
33564;DHT22;19894;48.452;11.494;2023-02-15T02:44:43;18.30;32.80
33564;DHT22;19894;48.452;11.494;2023-02-15T02:47:23;18.30;32.80
33564;DHT22;19894;48.452;11.494;2023-02-15T02:50:00;18.30;32.70
33564;DHT22;19894;48.452;11.494;2023-02-15T02:55:02;18.30;32.70
33564;DHT22;19894;48.452;11.494;2023-02-15T02:57:29;18.30;32.70
33564;DHT22;19894;48.452;11.494;2023-02-15T02:59:59;18.30;32.80
33564;DHT22;19894;48.452;11.494;2023-02-15T03:02:32;18.30;32.70
33564;DHT22;19894;48.452;11.494;2023-02-15T03:05:03;18.30;32.80
33564;DHT22;19894;48.452;11.494;2023-02-15T03:07:32;18.30;32.80
33564;DHT22;19894;48.452;11.494;2023-02-15T03:10:00;18.30;32.80
33564;DHT22;19894;48.452;11.494;2023-02-15T03:12:31;18.30;32.70
33564;DHT22;19894;48.452;11.494;2023-02-15T03:15:12;18.30;33.30
33564;DHT22;19894;48.452;11.494;2023-02-15T03:17:46;18.30;32.70
33564;DHT22;19894;48.452;11.494;2023-02-15T03:20:18;18.30;32.70
33564;DHT22;19894;48.452;11.494;2023-02-15T03:22:58;18.30;32.70
33564;DHT22;19894;48.452;11.494;2023-02-15T03:28:05;18.30;32.70
33564;DHT22;19894;48.452;11.494;2023-02-15T03:30:32;18.30;32.70
33564;DHT22;19894;48.452;11.494;2023-02-15T03:33:00;18.30;32.70
33564;DHT22;19894;48.452;11.494;2023-02-15T03:35:36;18.30;32.70
33564;DHT22;19894;48.452;11.494;2023-02-15T03:38:07;18.30;32.70
33564;DHT22;19894;48.452;11.494;2023-02-15T03:40:39;18.30;32.80
33564;DHT22;19894;48.452;11.494;2023-02-15T03:43:39;18.30;32.70
33564;DHT22;19894;48.452;11.494;2023-02-15T03:48:47;18.30;32.70
33564;DHT22;19894;48.452;11.494;2023-02-15T03:51:18;18.30;32.70
33564;DHT22;19894;48.452;11.494;2023-02-15T03:54:03;18.30;32.70
33564;DHT22;19894;48.452;11.494;2023-02-15T03:56:29;18.30;32.70
33564;DHT22;19894;48.452;11.494;2023-02-15T03:58:55;18.30;32.70
33564;DHT22;19894;48.452;11.494;2023-02-15T04:04:38;18.30;32.70
33564;DHT22;19894;48.452;11.494;2023-02-15T04:07:07;18.30;32.80
33564;DHT22;19894;48.452;11.494;2023-02-15T04:09:33;18.30;32.80
33564;DHT22;19894;48.452;11.494;2023-02-15T04:12:17;18.30;32.80
33564;DHT22;19894;48.452;11.494;2023-02-15T04:14:42;18.30;32.70
33564;DHT22;19894;48.452;11.494;2023-02-15T04:17:27;18.30;32.70
33564;DHT22;19894;48.452;11.494;2023-02-15T04:19:52;18.30;32.70
33564;DHT22;19894;48.452;11.494;2023-02-15T04:22:36;18.30;32.70
33564;DHT22;19894;48.452;11.494;2023-02-15T04:25:21;18.30;32.70
33564;DHT22;19894;48.452;11.494;2023-02-15T04:27:51;18.30;32.70
33564;DHT22;19894;48.452;11.494;2023-02-15T04:30:20;18.30;32.70
33564;DHT22;19894;48.452;11.494;2023-02-15T04:32:47;18.30;32.70
33564;DHT22;19894;48.452;11.494;2023-02-15T04:35:13;18.30;32.70
33564;DHT22;19894;48.452;11.494;2023-02-15T04:37:40;18.30;32.70
33564;DHT22;19894;48.452;11.494;2023-02-15T04:40:07;18.30;32.70
33564;DHT22;19894;48.452;11.494;2023-02-15T04:42:33;18.30;32.70
33564;DHT22;19894;48.452;11.494;2023-02-15T04:44:58;18.30;32.70
33564;DHT22;19894;48.452;11.494;2023-02-15T04:47:24;18.30;32.70
33564;DHT22;19894;48.452;11.494;2023-02-15T04:49:49;18.30;32.70
33564;DHT22;19894;48.452;11.494;2023-02-15T04:52:15;18.30;32.70
33564;DHT22;19894;48.452;11.494;2023-02-15T04:54:42;18.30;32.70
33564;DHT22;19894;48.452;11.494;2023-02-15T04:57:08;18.20;32.60
33564;DHT22;19894;48.452;11.494;2023-02-15T04:59:33;18.30;32.70
33564;DHT22;19894;48.452;11.494;2023-02-15T05:01:59;18.30;32.70
33564;DHT22;19894;48.452;11.494;2023-02-15T05:04:24;18.30;32.70
33564;DHT22;19894;48.452;11.494;2023-02-15T05:06:50;18.30;32.70
33564;DHT22;19894;48.452;11.494;2023-02-15T05:09:16;18.30;32.70
33564;DHT22;19894;48.452;11.494;2023-02-15T05:11:42;18.30;33.20
33564;DHT22;19894;48.452;11.494;2023-02-15T05:14:07;18.30;32.70
33564;DHT22;19894;48.452;11.494;2023-02-15T05:16:33;18.30;32.70
33564;DHT22;19894;48.452;11.494;2023-02-15T05:18:58;18.30;32.70
33564;DHT22;19894;48.452;11.494;2023-02-15T05:21:24;18.30;32.70
33564;DHT22;19894;48.452;11.494;2023-02-15T05:23:50;18.30;32.70
33564;DHT22;19894;48.452;11.494;2023-02-15T05:26:21;18.30;32.60
33564;DHT22;19894;48.452;11.494;2023-02-15T05:29:05;18.30;32.60
33564;DHT22;19894;48.452;11.494;2023-02-15T05:31:32;18.30;32.70
33564;DHT22;19894;48.452;11.494;2023-02-15T05:33:57;18.30;32.70
33564;DHT22;19894;48.452;11.494;2023-02-15T05:36:23;18.30;32.70
33564;DHT22;19894;48.452;11.494;2023-02-15T05:38:49;18.30;32.70
33564;DHT22;19894;48.452;11.494;2023-02-15T05:41:14;18.30;32.70
33564;DHT22;19894;48.452;11.494;2023-02-15T05:43:40;18.30;32.70
33564;DHT22;19894;48.452;11.494;2023-02-15T05:46:06;18.30;32.70
33564;DHT22;19894;48.452;11.494;2023-02-15T05:48:32;18.30;32.70
33564;DHT22;19894;48.452;11.494;2023-02-15T05:53:28;18.30;32.70
33564;DHT22;19894;48.452;11.494;2023-02-15T05:55:54;18.30;32.60
33564;DHT22;19894;48.452;11.494;2023-02-15T05:58:27;18.30;32.60
33564;DHT22;19894;48.452;11.494;2023-02-15T06:00:54;18.30;32.60
33564;DHT22;19894;48.452;11.494;2023-02-15T06:03:20;18.30;32.70
33564;DHT22;19894;48.452;11.494;2023-02-15T06:05:46;18.30;32.60
33564;DHT22;19894;48.452;11.494;2023-02-15T06:08:11;18.30;32.60
33564;DHT22;19894;48.452;11.494;2023-02-15T06:10:37;18.30;32.70
33564;DHT22;19894;48.452;11.494;2023-02-15T06:13:02;18.30;32.60
33564;DHT22;19894;48.452;11.494;2023-02-15T06:15:28;18.30;32.70
33564;DHT22;19894;48.452;11.494;2023-02-15T06:17:54;18.30;32.70
33564;DHT22;19894;48.452;11.494;2023-02-15T06:20:19;18.30;32.60
33564;DHT22;19894;48.452;11.494;2023-02-15T06:22:45;18.30;32.60
33564;DHT22;19894;48.452;11.494;2023-02-15T06:25:11;18.30;32.60
33564;DHT22;19894;48.452;11.494;2023-02-15T06:27:37;18.30;32.70
33564;DHT22;19894;48.452;11.494;2023-02-15T06:30:04;18.30;32.70
33564;DHT22;19894;48.452;11.494;2023-02-15T06:32:31;18.30;32.60
33564;DHT22;19894;48.452;11.494;2023-02-15T06:34:56;18.30;32.60
33564;DHT22;19894;48.452;11.494;2023-02-15T06:37:22;18.30;32.60
33564;DHT22;19894;48.452;11.494;2023-02-15T06:39:47;18.30;32.60
33564;DHT22;19894;48.452;11.494;2023-02-15T06:42:13;18.30;32.60
33564;DHT22;19894;48.452;11.494;2023-02-15T06:44:38;18.30;32.60
33564;DHT22;19894;48.452;11.494;2023-02-15T06:47:04;18.30;32.60
33564;DHT22;19894;48.452;11.494;2023-02-15T06:49:29;18.30;32.60
33564;DHT22;19894;48.452;11.494;2023-02-15T06:51:55;18.30;32.60
33564;DHT22;19894;48.452;11.494;2023-02-15T06:54:20;18.30;32.60
33564;DHT22;19894;48.452;11.494;2023-02-15T06:56:46;18.30;32.60
33564;DHT22;19894;48.452;11.494;2023-02-15T06:59:11;18.20;32.60
33564;DHT22;19894;48.452;11.494;2023-02-15T07:01:37;18.30;32.60
33564;DHT22;19894;48.452;11.494;2023-02-15T07:04:03;18.30;32.60
33564;DHT22;19894;48.452;11.494;2023-02-15T07:06:33;18.30;32.70
33564;DHT22;19894;48.452;11.494;2023-02-15T07:08:59;18.30;32.60
33564;DHT22;19894;48.452;11.494;2023-02-15T07:11:25;18.30;32.60
33564;DHT22;19894;48.452;11.494;2023-02-15T07:14:09;18.30;32.60
33564;DHT22;19894;48.452;11.494;2023-02-15T07:16:35;18.30;32.60
33564;DHT22;19894;48.452;11.494;2023-02-15T07:19:00;18.30;32.60
33564;DHT22;19894;48.452;11.494;2023-02-15T07:21:27;18.30;32.60
33564;DHT22;19894;48.452;11.494;2023-02-15T07:23:56;18.30;32.60
33564;DHT22;19894;48.452;11.494;2023-02-15T07:26:21;18.30;32.60
33564;DHT22;19894;48.452;11.494;2023-02-15T07:28:47;18.30;32.60
33564;DHT22;19894;48.452;11.494;2023-02-15T07:31:13;18.30;32.60
33564;DHT22;19894;48.452;11.494;2023-02-15T07:33:38;18.30;32.60
33564;DHT22;19894;48.452;11.494;2023-02-15T07:36:05;18.30;32.60
33564;DHT22;19894;48.452;11.494;2023-02-15T07:38:33;18.30;32.60
33564;DHT22;19894;48.452;11.494;2023-02-15T07:41:00;18.30;32.60
33564;DHT22;19894;48.452;11.494;2023-02-15T07:43:27;18.30;32.60
33564;DHT22;19894;48.452;11.494;2023-02-15T07:45:53;18.30;32.60
33564;DHT22;19894;48.452;11.494;2023-02-15T07:48:18;18.30;32.60
33564;DHT22;19894;48.452;11.494;2023-02-15T07:50:44;18.30;32.60
33564;DHT22;19894;48.452;11.494;2023-02-15T07:53:09;18.30;32.60
33564;DHT22;19894;48.452;11.494;2023-02-15T07:55:35;18.30;32.60
33564;DHT22;19894;48.452;11.494;2023-02-15T07:58:00;18.20;32.60
33564;DHT22;19894;48.452;11.494;2023-02-15T08:00:26;18.30;32.70
33564;DHT22;19894;48.452;11.494;2023-02-15T08:02:54;18.30;32.60
33564;DHT22;19894;48.452;11.494;2023-02-15T08:05:43;18.20;32.60
33564;DHT22;19894;48.452;11.494;2023-02-15T08:08:10;18.30;32.60
33564;DHT22;19894;48.452;11.494;2023-02-15T08:11:05;18.30;32.60
33564;DHT22;19894;48.452;11.494;2023-02-15T08:13:54;18.30;32.60
33564;DHT22;19894;48.452;11.494;2023-02-15T08:16:29;18.30;32.60
33564;DHT22;19894;48.452;11.494;2023-02-15T08:18:56;18.30;32.60
33564;DHT22;19894;48.452;11.494;2023-02-15T08:21:25;18.30;32.60
33564;DHT22;19894;48.452;11.494;2023-02-15T08:23:51;18.30;32.60
33564;DHT22;19894;48.452;11.494;2023-02-15T08:26:17;18.30;32.60
33564;DHT22;19894;48.452;11.494;2023-02-15T08:28:43;18.30;32.60
33564;DHT22;19894;48.452;11.494;2023-02-15T08:31:11;18.30;32.60
33564;DHT22;19894;48.452;11.494;2023-02-15T08:33:39;18.30;32.60
33564;DHT22;19894;48.452;11.494;2023-02-15T08:36:11;18.30;32.60
33564;DHT22;19894;48.452;11.494;2023-02-15T08:38:37;18.30;32.60
33564;DHT22;19894;48.452;11.494;2023-02-15T08:43:46;18.30;32.60
33564;DHT22;19894;48.452;11.494;2023-02-15T08:46:12;18.30;32.60
33564;DHT22;19894;48.452;11.494;2023-02-15T08:48:39;18.30;32.60
33564;DHT22;19894;48.452;11.494;2023-02-15T08:51:07;18.30;32.60
33564;DHT22;19894;48.452;11.494;2023-02-15T08:53:33;18.20;32.60
33564;DHT22;19894;48.452;11.494;2023-02-15T08:55:59;18.30;32.60
33564;DHT22;19894;48.452;11.494;2023-02-15T08:58:25;18.30;32.60
33564;DHT22;19894;48.452;11.494;2023-02-15T09:00:51;18.20;32.60
33564;DHT22;19894;48.452;11.494;2023-02-15T09:03:17;18.20;32.60
33564;DHT22;19894;48.452;11.494;2023-02-15T09:05:42;18.30;32.60
33564;DHT22;19894;48.452;11.494;2023-02-15T09:08:08;18.30;32.60
33564;DHT22;19894;48.452;11.494;2023-02-15T09:10:33;18.30;32.60
33564;DHT22;19894;48.452;11.494;2023-02-15T09:12:59;18.30;32.60
33564;DHT22;19894;48.452;11.494;2023-02-15T09:15:24;18.30;32.60
33564;DHT22;19894;48.452;11.494;2023-02-15T09:17:50;18.30;32.60
33564;DHT22;19894;48.452;11.494;2023-02-15T09:20:15;18.30;32.60
33564;DHT22;19894;48.452;11.494;2023-02-15T09:22:41;18.30;32.60
33564;DHT22;19894;48.452;11.494;2023-02-15T09:25:07;18.30;32.60
33564;DHT22;19894;48.452;11.494;2023-02-15T09:27:32;18.30;32.60
33564;DHT22;19894;48.452;11.494;2023-02-15T09:29:58;18.30;32.60
33564;DHT22;19894;48.452;11.494;2023-02-15T09:32:24;18.30;32.60
33564;DHT22;19894;48.452;11.494;2023-02-15T09:34:50;18.30;32.60
33564;DHT22;19894;48.452;11.494;2023-02-15T09:37:15;18.30;32.60
33564;DHT22;19894;48.452;11.494;2023-02-15T09:39:42;18.30;32.60
33564;DHT22;19894;48.452;11.494;2023-02-15T09:42:21;18.30;32.60
33564;DHT22;19894;48.452;11.494;2023-02-15T09:56:57;18.30;32.60
33564;DHT22;19894;48.452;11.494;2023-02-15T09:59:59;18.20;32.50
33564;DHT22;19894;48.452;11.494;2023-02-15T10:13:41;18.30;33.20
33564;DHT22;19894;48.452;11.494;2023-02-15T10:16:30;18.30;32.60
33564;DHT22;19894;48.452;11.494;2023-02-15T10:19:13;18.30;32.60
33564;DHT22;19894;48.452;11.494;2023-02-15T10:21:58;18.30;32.60
33564;DHT22;19894;48.452;11.494;2023-02-15T10:27:44;18.30;32.60
33564;DHT22;19894;48.452;11.494;2023-02-15T10:30:14;18.30;32.60
33564;DHT22;19894;48.452;11.494;2023-02-15T10:33:01;18.30;32.60
33564;DHT22;19894;48.452;11.494;2023-02-15T10:38:22;18.30;32.60
33564;DHT22;19894;48.452;11.494;2023-02-15T10:43:26;18.30;32.60
33564;DHT22;19894;48.452;11.494;2023-02-15T10:45:57;18.20;32.60
33564;DHT22;19894;48.452;11.494;2023-02-15T10:48:53;18.30;32.60
33564;DHT22;19894;48.452;11.494;2023-02-15T10:54:36;18.20;32.60
33564;DHT22;19894;48.452;11.494;2023-02-15T10:57:23;18.30;32.60
33564;DHT22;19894;48.452;11.494;2023-02-15T11:02:42;18.30;32.70
33564;DHT22;19894;48.452;11.494;2023-02-15T11:05:41;18.20;32.60
33564;DHT22;19894;48.452;11.494;2023-02-15T11:08:09;18.30;32.70
33564;DHT22;19894;48.452;11.494;2023-02-15T11:10:37;18.30;32.70
33564;DHT22;19894;48.452;11.494;2023-02-15T11:13:09;18.20;32.60
33564;DHT22;19894;48.452;11.494;2023-02-15T11:15:39;18.30;32.70
33564;DHT22;19894;48.452;11.494;2023-02-15T11:18:13;18.30;32.70
33564;DHT22;19894;48.452;11.494;2023-02-15T11:23:18;18.30;32.60
33564;DHT22;19894;48.452;11.494;2023-02-15T11:25:59;18.30;32.60
33564;DHT22;19894;48.452;11.494;2023-02-15T11:28:34;18.30;32.60
33564;DHT22;19894;48.452;11.494;2023-02-15T11:31:18;18.30;32.60
33564;DHT22;19894;48.452;11.494;2023-02-15T11:33:48;18.30;32.60
33564;DHT22;19894;48.452;11.494;2023-02-15T11:36:20;18.30;32.60
33564;DHT22;19894;48.452;11.494;2023-02-15T11:38:49;18.20;32.60
33564;DHT22;19894;48.452;11.494;2023-02-15T11:41:22;18.30;32.60
33564;DHT22;19894;48.452;11.494;2023-02-15T11:46:28;18.30;32.70
33564;DHT22;19894;48.452;11.494;2023-02-15T11:48:54;18.30;32.60
33564;DHT22;19894;48.452;11.494;2023-02-15T11:51:21;18.20;32.60
33564;DHT22;19894;48.452;11.494;2023-02-15T11:53:49;18.20;32.60
33564;DHT22;19894;48.452;11.494;2023-02-15T11:56:34;18.30;32.60
33564;DHT22;19894;48.452;11.494;2023-02-15T11:59:24;18.20;32.60
33564;DHT22;19894;48.452;11.494;2023-02-15T12:01:52;18.30;32.70
33564;DHT22;19894;48.452;11.494;2023-02-15T12:04:30;18.30;32.70
33564;DHT22;19894;48.452;11.494;2023-02-15T12:07:18;18.30;32.70
33564;DHT22;19894;48.452;11.494;2023-02-15T12:10:00;18.30;32.70
33564;DHT22;19894;48.452;11.494;2023-02-15T12:12:31;18.30;32.70
33564;DHT22;19894;48.452;11.494;2023-02-15T12:15:03;18.30;32.70
33564;DHT22;19894;48.452;11.494;2023-02-15T12:17:32;18.30;32.70
33564;DHT22;19894;48.452;11.494;2023-02-15T12:20:24;18.30;32.70
33564;DHT22;19894;48.452;11.494;2023-02-15T12:23:02;18.30;32.70
33564;DHT22;19894;48.452;11.494;2023-02-15T12:28:00;18.30;32.70
33564;DHT22;19894;48.452;11.494;2023-02-15T12:30:32;18.30;32.70
33564;DHT22;19894;48.452;11.494;2023-02-15T12:33:15;18.30;32.70
33564;DHT22;19894;48.452;11.494;2023-02-15T12:35:42;18.30;32.70
33564;DHT22;19894;48.452;11.494;2023-02-15T12:40:34;18.30;32.70
33564;DHT22;19894;48.452;11.494;2023-02-15T12:43:04;18.30;32.70
33564;DHT22;19894;48.452;11.494;2023-02-15T12:45:36;18.30;32.70
33564;DHT22;19894;48.452;11.494;2023-02-15T12:50:45;18.20;32.60
33564;DHT22;19894;48.452;11.494;2023-02-15T12:55:50;18.30;32.70
33564;DHT22;19894;48.452;11.494;2023-02-15T13:00:42;18.30;32.80
33564;DHT22;19894;48.452;11.494;2023-02-15T13:03:19;18.30;32.80
33564;DHT22;19894;48.452;11.494;2023-02-15T13:05:49;18.30;32.80
33564;DHT22;19894;48.452;11.494;2023-02-15T13:08:19;18.30;32.80
33564;DHT22;19894;48.452;11.494;2023-02-15T13:11:05;18.30;32.80
33564;DHT22;19894;48.452;11.494;2023-02-15T13:13:33;18.30;32.80
33564;DHT22;19894;48.452;11.494;2023-02-15T13:16:13;18.30;32.80
33564;DHT22;19894;48.452;11.494;2023-02-15T13:18:45;18.30;32.70
33564;DHT22;19894;48.452;11.494;2023-02-15T13:21:16;18.30;32.80
33564;DHT22;19894;48.452;11.494;2023-02-15T13:26:45;18.30;32.80
33564;DHT22;19894;48.452;11.494;2023-02-15T13:29:20;18.30;32.80
33564;DHT22;19894;48.452;11.494;2023-02-15T13:31:46;18.30;32.80
33564;DHT22;19894;48.452;11.494;2023-02-15T13:34:35;18.30;32.80
33564;DHT22;19894;48.452;11.494;2023-02-15T13:39:54;18.30;32.80
33564;DHT22;19894;48.452;11.494;2023-02-15T13:42:35;18.30;32.80
33564;DHT22;19894;48.452;11.494;2023-02-15T13:45:09;18.30;32.80
33564;DHT22;19894;48.452;11.494;2023-02-15T13:48:12;18.30;32.90
33564;DHT22;19894;48.452;11.494;2023-02-15T13:56:28;18.30;32.90
33564;DHT22;19894;48.452;11.494;2023-02-15T14:18:43;18.30;32.90
33564;DHT22;19894;48.452;11.494;2023-02-15T14:21:28;18.30;32.90
33564;DHT22;19894;48.452;11.494;2023-02-15T14:24:21;18.30;32.90
33564;DHT22;19894;48.452;11.494;2023-02-15T14:27:23;18.30;32.90
33564;DHT22;19894;48.452;11.494;2023-02-15T14:29:52;18.30;32.90
33564;DHT22;19894;48.452;11.494;2023-02-15T14:34:57;18.30;32.90
33564;DHT22;19894;48.452;11.494;2023-02-15T14:40:06;18.30;32.90
33564;DHT22;19894;48.452;11.494;2023-02-15T14:46:31;18.30;32.90
33564;DHT22;19894;48.452;11.494;2023-02-15T14:49:27;18.30;32.90
33564;DHT22;19894;48.452;11.494;2023-02-15T14:51:58;18.30;33.00
33564;DHT22;19894;48.452;11.494;2023-02-15T14:59:55;18.20;32.90
33564;DHT22;19894;48.452;11.494;2023-02-15T15:05:06;18.30;33.00
33564;DHT22;19894;48.452;11.494;2023-02-15T15:12:44;18.30;33.00
33564;DHT22;19894;48.452;11.494;2023-02-15T15:17:55;18.30;33.00
33564;DHT22;19894;48.452;11.494;2023-02-15T15:20:44;18.30;33.00
33564;DHT22;19894;48.452;11.494;2023-02-15T15:25:55;18.30;33.00
33564;DHT22;19894;48.452;11.494;2023-02-15T15:31:28;18.30;33.00
33564;DHT22;19894;48.452;11.494;2023-02-15T15:34:37;18.30;33.00
33564;DHT22;19894;48.452;11.494;2023-02-15T15:37:11;18.30;33.10
33564;DHT22;19894;48.452;11.494;2023-02-15T15:40:24;18.30;33.00
33564;DHT22;19894;48.452;11.494;2023-02-15T15:42:50;18.30;33.10
33564;DHT22;19894;48.452;11.494;2023-02-15T15:51:02;18.30;33.10
33564;DHT22;19894;48.452;11.494;2023-02-15T15:53:32;18.30;33.10
33564;DHT22;19894;48.452;11.494;2023-02-15T15:56:04;18.30;33.10
33564;DHT22;19894;48.452;11.494;2023-02-15T15:58:31;18.20;33.10
33564;DHT22;19894;48.452;11.494;2023-02-15T16:01:06;18.30;33.10
33564;DHT22;19894;48.452;11.494;2023-02-15T16:03:33;18.30;33.10
33564;DHT22;19894;48.452;11.494;2023-02-15T16:05:59;18.30;33.10
33564;DHT22;19894;48.452;11.494;2023-02-15T16:08:36;18.30;33.10
33564;DHT22;19894;48.452;11.494;2023-02-15T16:11:19;18.30;33.10
33564;DHT22;19894;48.452;11.494;2023-02-15T16:13:47;18.30;33.10
33564;DHT22;19894;48.452;11.494;2023-02-15T16:16:13;18.30;33.10
33564;DHT22;19894;48.452;11.494;2023-02-15T16:18:45;18.30;33.10
33564;DHT22;19894;48.452;11.494;2023-02-15T16:21:21;18.30;33.10
33564;DHT22;19894;48.452;11.494;2023-02-15T16:24:16;18.30;33.10
33564;DHT22;19894;48.452;11.494;2023-02-15T16:27:10;18.30;33.10
33564;DHT22;19894;48.452;11.494;2023-02-15T16:29:38;18.30;33.10
33564;DHT22;19894;48.452;11.494;2023-02-15T16:32:25;18.30;33.10
33564;DHT22;19894;48.452;11.494;2023-02-15T16:35:01;18.30;33.10
33564;DHT22;19894;48.452;11.494;2023-02-15T16:37:32;18.30;33.10
33564;DHT22;19894;48.452;11.494;2023-02-15T16:39:58;18.30;33.10
33564;DHT22;19894;48.452;11.494;2023-02-15T16:42:24;18.30;33.10
33564;DHT22;19894;48.452;11.494;2023-02-15T16:45:16;18.30;33.70
33564;DHT22;19894;48.452;11.494;2023-02-15T16:47:46;18.30;33.70
33564;DHT22;19894;48.452;11.494;2023-02-15T16:50:31;18.30;33.10
33564;DHT22;19894;48.452;11.494;2023-02-15T16:52:57;18.30;33.20
33564;DHT22;19894;48.452;11.494;2023-02-15T16:55:26;18.30;33.20
33564;DHT22;19894;48.452;11.494;2023-02-15T16:57:56;18.30;33.10
33564;DHT22;19894;48.452;11.494;2023-02-15T17:00:26;18.30;33.10
33564;DHT22;19894;48.452;11.494;2023-02-15T17:05:44;18.30;33.20
33564;DHT22;19894;48.452;11.494;2023-02-15T17:08:32;18.30;33.10
33564;DHT22;19894;48.452;11.494;2023-02-15T17:16:44;18.30;33.10
33564;DHT22;19894;48.452;11.494;2023-02-15T17:19:23;18.30;33.10
33564;DHT22;19894;48.452;11.494;2023-02-15T17:22:30;18.30;33.10
33564;DHT22;19894;48.452;11.494;2023-02-15T17:25:02;18.30;33.10
33564;DHT22;19894;48.452;11.494;2023-02-15T17:27:30;18.30;33.70
33564;DHT22;19894;48.452;11.494;2023-02-15T17:30:00;18.30;33.10
33564;DHT22;19894;48.452;11.494;2023-02-15T17:32:29;18.30;33.10
33564;DHT22;19894;48.452;11.494;2023-02-15T17:39:54;18.30;33.20
33564;DHT22;19894;48.452;11.494;2023-02-15T17:42:20;18.30;33.10
33564;DHT22;19894;48.452;11.494;2023-02-15T17:44:45;18.30;33.20
33564;DHT22;19894;48.452;11.494;2023-02-15T17:47:20;18.30;33.20
33564;DHT22;19894;48.452;11.494;2023-02-15T17:49:46;18.30;33.20
33564;DHT22;19894;48.452;11.494;2023-02-15T17:52:15;18.30;33.10
33564;DHT22;19894;48.452;11.494;2023-02-15T17:54:41;18.30;33.20
33564;DHT22;19894;48.452;11.494;2023-02-15T17:57:25;18.30;33.20
33564;DHT22;19894;48.452;11.494;2023-02-15T17:59:52;18.30;33.20
33564;DHT22;19894;48.452;11.494;2023-02-15T18:02:36;18.30;33.20
33564;DHT22;19894;48.452;11.494;2023-02-15T18:05:21;18.30;33.20
33564;DHT22;19894;48.452;11.494;2023-02-15T18:08:26;18.30;33.20
33564;DHT22;19894;48.452;11.494;2023-02-15T18:11:12;18.30;33.20
33564;DHT22;19894;48.452;11.494;2023-02-15T18:13:56;18.30;33.20
33564;DHT22;19894;48.452;11.494;2023-02-15T18:16:28;18.30;33.20
33564;DHT22;19894;48.452;11.494;2023-02-15T18:18:55;18.30;33.20
33564;DHT22;19894;48.452;11.494;2023-02-15T18:21:22;18.30;33.20
33564;DHT22;19894;48.452;11.494;2023-02-15T18:23:48;18.30;33.20
33564;DHT22;19894;48.452;11.494;2023-02-15T18:26:19;18.30;33.10
33564;DHT22;19894;48.452;11.494;2023-02-15T18:28:44;18.30;33.20